Aérodrome :
LOGIN :

S'inscrire | Disclaimer

   EN    FR    IT 

 










Légende :    VFR   VFR Marginal   IFR   IFR Intensif   IFR Très Intensif
Visi : 
Plafond : 
>= 8 km
>= 3000ft
5 à 8 km
1000 à 3000 ft
1500m à 5 km
500 à 1000 ft
800 à 1500m
200 à 500 ft
< 800m
< 200 ft
Symboles :   Orages  Brouillard  Fortes neiges  Fortes précipitations  Vent > 20 kt
SIGMETs :   Divers  Orages  Givrage  Turbulence  Onde Orograph.  Cendres Volcan.






- Altitude de l'aérodrome : 782 ft
- Code IATA : BGY


LIME - Orio al Serio International - Bergamo

DERNIER METAR :
  • 122250Z VRB01KT 2000 BR BKN003 08/08 Q0995 NOSIG

METARs EXPIRÉS :
  • 122220Z 23003KT 2000 BR BKN003 08/08 Q0996 NOSIG
  • 122150Z 11002KT 1800 BR BKN003 08/08 Q0996 NOSIG
  • 122120Z VRB02KT 1000 R28/P1500N BCFG BKN002 08/08 Q0996 NOSIG
  • 122050Z 11003KT 0900 R28/P1500N FG BKN002 08/08 Q0996 NOSIG

TAF AMD TAF LIME
Valide du 12 à 19h jusqu'au 13 à 18h UTC


121911Z 1219/1318 VRB05KT 1200 BCFG BKN005
TEMPO 1219/1308 0500 FG OVC002
BECMG 1308/1310 7000 NSW SCT025



MET'MAP, la Météo Aéronautique d'un coup d'oeil ! - Copyright ORBIFLY Décembre 2007 - Disclaimer

ORBIFLY MET'MAP TEAM :

Programmation & Développement : Alexandra Zaïnal
Conception & Développement : Baudouin d'Aumeries
Co-Programmation & Développement : Marc-Olivier Méhu
Soutien technique & logistique : Manuel Goepfert

Contact : metmap@orbifly.com




SOURCES & CREDITS :

   NOAA